Spring Lake Park, Minnesota
Current Conditions -  °F | °C
As of 7:55 PM on Wednesday 26 Nov 2014 (Local Time) from KANE Reporting Station
Broken Clouds Broken Clouds  
Wind Chill:   Ceiling: 7000
Heat Index: 21°   Visibility: 10mi
Dew Point: 12°   Wind: 13mph
Humidity: 68%   Direction: 340°NNW
Pressure: 30.31"   Gusts: 20mph
Location:  45.0968°N, 93.2542°W
Report Text: KANE 270155Z 34011G17KT 10SM BKN070 M06/M11 A3031
Loading
Personal Weather Stations






























Interactive Weather Map New forecast layout! Learn more

10-Day Weather Forecast

Advertisements
Track Severe Weather on mobile